createdAt,value
2022-10-22T00:01:15.905Z,11.97
2022-10-22T00:06:17.567Z,11.75
2022-10-22T00:11:20.245Z,11.82
2022-10-22T00:16:21.964Z,11.97
2022-10-22T00:21:23.975Z,11.69
2022-10-22T00:26:25.654Z,11.85
2022-10-22T00:31:27.824Z,11.78
2022-10-22T00:36:29.497Z,11.67
2022-10-22T00:41:31.161Z,11.69
2022-10-22T00:46:33.022Z,11.68
2022-10-22T00:51:35.817Z,11.62
2022-10-22T00:56:38.207Z,11.68
2022-10-22T01:01:39.878Z,11.68
2022-10-22T01:06:41.571Z,11.59
2022-10-22T01:12:20.233Z,11.79
2022-10-22T01:17:32.093Z,11.79
2022-10-22T01:22:44.462Z,11.93
2022-10-22T01:28:01.686Z,11.95
2022-10-22T01:33:06.987Z,11.93
2022-10-22T01:38:13.739Z,11.90
2022-10-22T01:43:15.460Z,11.83
2022-10-22T01:48:54.788Z,11.76
2022-10-22T01:54:34.262Z,11.79
2022-10-22T01:59:47.386Z,11.99
2022-10-22T02:04:55.705Z,11.98
2022-10-22T02:09:59.770Z,11.95
2022-10-22T02:15:03.332Z,11.82
2022-10-22T02:20:35.836Z,11.86
2022-10-22T02:25:40.937Z,11.91
2022-10-22T02:30:46.682Z,11.86
2022-10-22T02:35:49.949Z,11.82
2022-10-22T02:40:52.005Z,11.66
2022-10-22T02:45:53.672Z,11.93
2022-10-22T02:50:55.331Z,11.93
2022-10-22T02:55:57.034Z,12.00
2022-10-22T03:00:58.784Z,12.03
2022-10-22T03:06:00.719Z,12.20
2022-10-22T03:11:02.394Z,12.04
2022-10-22T03:16:04.231Z,12.15
2022-10-22T03:21:29.872Z,11.95
2022-10-22T03:26:32.661Z,11.57
2022-10-22T03:31:34.387Z,11.80
2022-10-22T03:36:36.060Z,11.80
2022-10-22T03:41:37.814Z,11.79
2022-10-22T03:46:39.485Z,11.91
2022-10-22T03:51:41.167Z,11.94
2022-10-22T03:56:42.872Z,12.08
2022-10-22T04:01:44.587Z,11.99
2022-10-22T04:06:46.250Z,12.18
2022-10-22T04:11:47.960Z,11.99
2022-10-22T04:16:49.808Z,12.07
2022-10-22T04:21:51.469Z,11.93
2022-10-22T04:26:56.266Z,11.65
2022-10-22T04:31:57.939Z,11.77
2022-10-22T04:36:59.662Z,11.83
2022-10-22T04:42:01.330Z,11.78
2022-10-22T04:47:02.996Z,11.66
2022-10-22T04:52:04.836Z,11.61
2022-10-22T04:57:06.538Z,11.58
2022-10-22T05:02:08.410Z,11.59
2022-10-22T05:07:10.083Z,11.38
2022-10-22T05:12:11.801Z,11.47
2022-10-22T05:17:13.508Z,11.59
2022-10-22T05:22:15.333Z,11.60
2022-10-22T05:27:17.011Z,11.51
2022-10-22T05:32:18.660Z,11.38
2022-10-22T05:37:20.368Z,11.49
2022-10-22T05:42:22.139Z,11.59
2022-10-22T05:47:23.858Z,11.63
2022-10-22T05:52:26.638Z,11.65
2022-10-22T05:57:28.291Z,11.61
2022-10-22T06:02:29.991Z,11.77
2022-10-22T06:07:33.346Z,11.78
2022-10-22T06:12:35.339Z,11.92
2022-10-22T06:17:37.071Z,11.92
2022-10-22T06:22:39.287Z,11.92
2022-10-22T06:27:41.222Z,12.06
2022-10-22T06:32:43.089Z,12.16
2022-10-22T06:37:44.900Z,12.30
2022-10-22T06:42:46.569Z,12.40
2022-10-22T06:47:49.051Z,12.31
2022-10-22T06:52:50.811Z,12.04
2022-10-22T06:57:52.513Z,12.09
2022-10-22T07:02:57.699Z,12.30
2022-10-22T07:08:00.932Z,12.56
2022-10-22T07:13:02.598Z,12.68
2022-10-22T07:18:04.826Z,12.67
2022-10-22T07:23:06.529Z,12.80
2022-10-22T07:28:08.383Z,12.77
2022-10-22T07:33:11.330Z,12.63
2022-10-22T07:38:13.163Z,12.46
2022-10-22T07:43:14.820Z,12.47
2022-10-22T07:48:16.910Z,13.24
2022-10-22T07:53:18.732Z,14.01
2022-10-22T07:58:21.652Z,14.22
2022-10-22T08:03:23.447Z,14.27
2022-10-22T08:08:27.202Z,14.28
2022-10-22T08:13:31.688Z,14.18
2022-10-22T08:18:33.380Z,14.19
2022-10-22T08:23:35.397Z,14.26
2022-10-22T08:28:37.253Z,14.29
2022-10-22T08:33:39.982Z,14.26
2022-10-22T08:38:41.705Z,14.42
2022-10-22T08:44:07.850Z,14.43
2022-10-22T08:49:17.917Z,14.54
2022-10-22T08:54:39.440Z,14.68
2022-10-22T08:59:51.396Z,14.85
2022-10-22T09:05:18.388Z,14.59
2022-10-22T09:10:24.559Z,14.77
2022-10-22T09:15:27.089Z,14.60
2022-10-22T09:20:34.448Z,14.86
2022-10-22T09:25:37.623Z,15.24
2022-10-22T09:30:40.049Z,15.26
2022-10-22T09:35:57.294Z,15.67
2022-10-22T09:41:01.260Z,16.46
2022-10-22T09:46:05.971Z,17.73
2022-10-22T09:51:36.355Z,16.61
2022-10-22T09:56:42.179Z,17.43
2022-10-22T10:01:47.427Z,17.18
2022-10-22T10:06:55.465Z,19.83
2022-10-22T10:12:36.329Z,20.88
2022-10-22T10:18:27.668Z,20.19
2022-10-22T10:23:43.028Z,24.84
2022-10-22T10:28:55.424Z,24.02
2022-10-22T10:34:12.085Z,22.25
2022-10-22T10:39:30.652Z,20.78
2022-10-22T10:44:53.373Z,21.67
2022-10-22T10:50:18.675Z,20.15
2022-10-22T10:56:27.946Z,20.27
2022-10-22T11:02:03.637Z,19.97
2022-10-22T11:07:22.835Z,20.20
2022-10-22T11:12:39.126Z,19.07
2022-10-22T11:17:46.309Z,18.19
2022-10-22T11:23:19.371Z,17.55
2022-10-22T11:28:32.435Z,17.14
2022-10-22T11:33:45.001Z,17.19
2022-10-22T11:38:46.914Z,17.42
2022-10-22T11:43:59.058Z,17.61
2022-10-22T11:49:23.311Z,18.66
2022-10-22T11:54:34.222Z,18.45
2022-10-22T11:59:44.669Z,18.38
2022-10-22T12:04:47.471Z,19.00
2022-10-22T12:14:57.810Z,18.30
2022-10-22T12:20:07.536Z,18.38
2022-10-22T12:25:34.820Z,18.73
2022-10-22T12:30:37.825Z,21.33
2022-10-22T12:35:45.120Z,21.22
2022-10-22T12:40:48.965Z,20.45
2022-10-22T12:45:51.838Z,21.87
2022-10-22T12:50:58.095Z,23.15
2022-10-22T12:56:02.686Z,21.56
2022-10-22T13:01:04.720Z,20.29
2022-10-22T13:06:18.422Z,20.86
2022-10-22T13:11:20.687Z,20.49
2022-10-22T13:16:25.862Z,21.00
2022-10-22T13:21:38.713Z,22.13
2022-10-22T13:26:40.405Z,22.04
2022-10-22T13:31:47.334Z,21.45
2022-10-22T13:36:49.178Z,21.17
2022-10-22T13:41:51.484Z,22.61
2022-10-22T13:46:53.180Z,21.18
2022-10-22T13:51:54.944Z,19.93
2022-10-22T13:56:56.644Z,19.75
2022-10-22T14:01:58.327Z,20.30
2022-10-22T14:07:03.703Z,20.45
2022-10-22T14:12:13.835Z,20.02
2022-10-22T14:17:16.977Z,19.99
2022-10-22T14:22:19.684Z,20.52
2022-10-22T14:27:21.364Z,20.47
2022-10-22T14:32:23.180Z,19.87
2022-10-22T14:37:25.362Z,19.83
2022-10-22T14:42:28.520Z,19.23
2022-10-22T14:47:30.210Z,19.06
2022-10-22T14:52:31.870Z,19.10
2022-10-22T14:57:33.540Z,19.11
2022-10-22T15:02:35.325Z,19.06
2022-10-22T15:07:37.879Z,18.84
2022-10-22T15:12:39.778Z,18.91
2022-10-22T15:17:41.628Z,18.49
2022-10-22T15:22:43.698Z,18.40
2022-10-22T15:27:50.330Z,18.16
2022-10-22T15:32:53.474Z,18.07
2022-10-22T15:37:55.144Z,17.90
2022-10-22T15:42:56.809Z,17.67
2022-10-22T15:47:58.788Z,17.41
2022-10-22T15:53:00.518Z,16.97
2022-10-22T15:58:04.171Z,16.69
2022-10-22T16:03:06.236Z,15.95
2022-10-22T16:08:07.900Z,15.90
2022-10-22T16:13:09.566Z,15.62
2022-10-22T16:18:11.230Z,15.60
2022-10-22T16:23:13.930Z,15.32
2022-10-22T16:28:15.936Z,14.98
2022-10-22T16:33:17.602Z,14.84
2022-10-22T16:38:19.261Z,14.69
2022-10-22T16:43:20.940Z,14.54
2022-10-22T16:48:22.601Z,14.44
2022-10-22T16:53:24.331Z,14.24
2022-10-22T16:58:26.159Z,14.14
2022-10-22T17:03:28.453Z,13.93
2022-10-22T17:08:37.566Z,14.20
2022-10-22T17:13:40.981Z,14.31
2022-10-22T17:23:56.565Z,14.14
2022-10-22T17:28:58.357Z,14.04
2022-10-22T17:34:00.268Z,14.22
2022-10-22T17:39:05.611Z,14.19
2022-10-22T17:44:09.352Z,13.93
2022-10-22T17:49:20.098Z,14.04
2022-10-22T17:54:21.838Z,13.88
2022-10-22T17:59:23.513Z,14.29
2022-10-22T18:04:25.222Z,13.91
2022-10-22T18:09:27.052Z,13.95
2022-10-22T18:14:28.723Z,14.05
2022-10-22T18:19:30.469Z,13.81
2022-10-22T18:24:32.142Z,13.57
2022-10-22T18:29:33.807Z,14.01
2022-10-22T18:34:37.404Z,13.75
2022-10-22T18:39:39.112Z,13.47
2022-10-22T18:44:40.805Z,13.69
2022-10-22T18:49:42.465Z,14.02
2022-10-22T18:54:44.182Z,14.12
2022-10-22T18:59:45.838Z,14.26
2022-10-22T19:04:47.552Z,14.17
2022-10-22T19:09:49.240Z,14.07
2022-10-22T19:14:51.853Z,14.14
2022-10-22T19:19:53.562Z,14.16
2022-10-22T19:24:55.295Z,14.23
2022-10-22T19:29:57.082Z,14.38
2022-10-22T19:34:59.069Z,14.47
2022-10-22T19:40:00.819Z,14.59
2022-10-22T19:45:03.298Z,14.79
2022-10-22T19:50:05.298Z,14.84
2022-10-22T19:55:07.199Z,14.88
2022-10-22T20:00:09.395Z,14.97
2022-10-22T20:05:11.566Z,14.96
2022-10-22T20:10:13.291Z,15.07
2022-10-22T20:15:17.010Z,15.15
2022-10-22T20:20:20.099Z,15.12
2022-10-22T20:25:23.629Z,14.99
2022-10-22T20:30:25.288Z,14.89
2022-10-22T20:35:27.009Z,14.90
2022-10-22T20:40:30.765Z,14.72
2022-10-22T20:45:32.453Z,14.71
2022-10-22T20:50:34.144Z,14.51
2022-10-22T20:55:35.859Z,14.39
2022-10-22T21:00:39.442Z,14.44
2022-10-22T21:05:41.481Z,14.42
2022-10-22T21:10:46.392Z,14.00
2022-10-22T21:15:48.155Z,13.52
2022-10-22T21:20:49.942Z,13.17
2022-10-22T21:25:56.385Z,13.10
2022-10-22T21:30:58.204Z,12.78
2022-10-22T21:35:59.882Z,12.66
2022-10-22T21:41:09.944Z,12.54
2022-10-22T21:46:15.545Z,12.40
2022-10-22T21:51:19.153Z,12.29
2022-10-22T21:56:32.362Z,12.10
2022-10-22T22:01:34.557Z,11.97
2022-10-22T22:06:36.415Z,11.92
2022-10-22T22:11:38.125Z,11.79
2022-10-22T22:16:40.366Z,11.72
2022-10-22T22:21:42.239Z,11.64
2022-10-22T22:26:43.944Z,11.58
2022-10-22T22:31:46.058Z,11.67
2022-10-22T22:36:49.519Z,11.61
2022-10-22T22:41:51.801Z,11.46
2022-10-22T22:46:53.466Z,11.55
2022-10-22T22:51:55.122Z,11.44
2022-10-22T22:56:56.831Z,11.40
2022-10-22T23:01:58.580Z,11.19
2022-10-22T23:07:00.269Z,11.15
2022-10-22T23:12:01.925Z,10.94
2022-10-22T23:17:03.683Z,10.98
2022-10-22T23:22:05.402Z,10.78
2022-10-22T23:27:07.074Z,10.74
2022-10-22T23:32:14.224Z,10.74
2022-10-22T23:37:15.920Z,10.75
2022-10-22T23:42:17.604Z,10.57
2022-10-22T23:47:19.420Z,10.45
2022-10-22T23:52:21.121Z,10.45
2022-10-22T23:57:23.142Z,10.46
